LHB4 LFBH-LSZR
Flight info
| Callsign | LHB4 |
|---|---|
| Flight time | 1h 6m |
| Altitude | 47000 |
| Route | MANAK DCT LUSAR Z64 MOLUS N871 DITON Z671 ROLSA |
| Aircraft | C750/M-SBDE3FGHRWXY/S |
Departure
| Time | 2026-04-28 12:30 |
|---|---|
| Airport | La Rochelle Île de Ré Airport (LFBH) |
Arrival
| Time | 2026-04-28 13:36 |
|---|---|
| Airport | Sankt Gallen Altenrhein Airport (LSZR) |
| Time | Latitude | Longitude | Altitude | Speed | Heading |
|---|---|---|---|---|---|
| 2026-04-28 12:14 | 46.17653 | -1.19370 | 74 ft | 0 kts | 302° |
| 2026-04-28 12:26 | 46.17663 | -1.19393 | 69 ft | 8 kts | 304° |
| 2026-04-28 12:26 | 46.17690 | -1.19464 | 70 ft | 8 kts | 276° |
| 2026-04-28 12:26 | 46.17718 | -1.19525 | 70 ft | 7 kts | 341° |
| 2026-04-28 12:27 | 46.17785 | -1.19526 | 73 ft | 13 kts | 5° |
| 2026-04-28 12:27 | 46.17869 | -1.19524 | 74 ft | 11 kts | 2° |
| 2026-04-28 12:27 | 46.17915 | -1.19458 | 74 ft | 11 kts | 93° |
| 2026-04-28 12:27 | 46.17912 | -1.19337 | 69 ft | 14 kts | 91° |
| 2026-04-28 12:28 | 46.17908 | -1.19144 | 72 ft | 24 kts | 92° |
| 2026-04-28 12:28 | 46.17900 | -1.18881 | 74 ft | 26 kts | 92° |
| 2026-04-28 12:28 | 46.17892 | -1.18625 | 74 ft | 24 kts | 92° |
| 2026-04-28 12:28 | 46.17886 | -1.18405 | 80 ft | 21 kts | 92° |
| 2026-04-28 12:29 | 46.17881 | -1.18228 | 84 ft | 3 kts | 271° |
| 2026-04-28 12:29 | 46.17890 | -1.18533 | 78 ft | 86 kts | 271° |
| 2026-04-28 12:29 | 46.17944 | -1.19876 | 188 ft | 156 kts | 278° |
| 2026-04-28 12:30 | 46.18043 | -1.21557 | 547 ft | 182 kts | 277° |
| 2026-04-28 12:30 | 46.18334 | -1.23420 | 1112 ft | 199 kts | 292° |
| 2026-04-28 12:30 | 46.18975 | -1.25317 | 1589 ft | 224 kts | 302° |
| 2026-04-28 12:30 | 46.19957 | -1.27212 | 1943 ft | 250 kts | 320° |
| 2026-04-28 12:31 | 46.21557 | -1.28236 | 2587 ft | 254 kts | 351° |
| 2026-04-28 12:31 | 46.23268 | -1.28019 | 3808 ft | 248 kts | 19° |
| 2026-04-28 12:31 | 46.24753 | -1.26752 | 4857 ft | 253 kts | 45° |
| 2026-04-28 12:31 | 46.25729 | -1.24630 | 5850 ft | 258 kts | 69° |
| 2026-04-28 12:32 | 46.25966 | -1.22060 | 6875 ft | 263 kts | 95° |
| 2026-04-28 12:32 | 46.25584 | -1.19444 | 7886 ft | 271 kts | 103° |
| 2026-04-28 12:32 | 46.25118 | -1.16765 | 8937 ft | 279 kts | 104° |
| 2026-04-28 12:32 | 46.24653 | -1.13999 | 9918 ft | 288 kts | 103° |
| 2026-04-28 12:33 | 46.24176 | -1.11113 | 10493 ft | 307 kts | 104° |
| 2026-04-28 12:33 | 46.23653 | -1.07986 | 10760 ft | 334 kts | 104° |
| 2026-04-28 12:33 | 46.23081 | -1.04589 | 10931 ft | 361 kts | 104° |
| 2026-04-28 12:33 | 46.22487 | -1.01053 | 11755 ft | 363 kts | 104° |
| 2026-04-28 12:34 | 46.21889 | -0.97488 | 12557 ft | 367 kts | 104° |
| 2026-04-28 12:34 | 46.21441 | -0.93831 | 13135 ft | 377 kts | 92° |
| 2026-04-28 12:34 | 46.21736 | -0.90058 | 13864 ft | 380 kts | 81° |
| 2026-04-28 12:34 | 46.22152 | -0.86271 | 14524 ft | 385 kts | 81° |
| 2026-04-28 12:35 | 46.22539 | -0.82423 | 15177 ft | 390 kts | 82° |
| 2026-04-28 12:35 | 46.22913 | -0.78525 | 15816 ft | 395 kts | 82° |
| 2026-04-28 12:35 | 46.23308 | -0.74571 | 16493 ft | 400 kts | 82° |
| 2026-04-28 12:35 | 46.23718 | -0.70576 | 17173 ft | 405 kts | 82° |
| 2026-04-28 12:36 | 46.24124 | -0.66520 | 17877 ft | 411 kts | 82° |
| 2026-04-28 12:36 | 46.24521 | -0.62468 | 18538 ft | 416 kts | 83° |
| 2026-04-28 12:36 | 46.24930 | -0.58307 | 19178 ft | 421 kts | 83° |
| 2026-04-28 12:36 | 46.25348 | -0.54088 | 19830 ft | 426 kts | 83° |
| 2026-04-28 12:37 | 46.25768 | -0.49820 | 20484 ft | 432 kts | 83° |
| 2026-04-28 12:37 | 46.26189 | -0.45500 | 21121 ft | 437 kts | 83° |
| 2026-04-28 12:37 | 46.26613 | -0.41129 | 21761 ft | 442 kts | 83° |
| 2026-04-28 12:37 | 46.27042 | -0.36704 | 22400 ft | 447 kts | 83° |
| 2026-04-28 12:38 | 46.27476 | -0.32221 | 23012 ft | 453 kts | 84° |
| 2026-04-28 12:38 | 46.27911 | -0.27686 | 23628 ft | 458 kts | 84° |
| 2026-04-28 12:38 | 46.28348 | -0.23107 | 24135 ft | 463 kts | 84° |
| 2026-04-28 12:38 | 46.28791 | -0.18462 | 24633 ft | 468 kts | 84° |
| 2026-04-28 12:39 | 46.29236 | -0.13777 | 25119 ft | 474 kts | 84° |
| 2026-04-28 12:39 | 46.29683 | -0.09032 | 25612 ft | 479 kts | 84° |
| 2026-04-28 12:39 | 46.30133 | -0.04240 | 26114 ft | 484 kts | 84° |
| 2026-04-28 12:39 | 46.30587 | 0.00612 | 26586 ft | 489 kts | 85° |
| 2026-04-28 12:40 | 46.31043 | 0.05508 | 27072 ft | 494 kts | 85° |
| 2026-04-28 12:40 | 46.31500 | 0.10457 | 27570 ft | 499 kts | 85° |
| 2026-04-28 12:40 | 46.31958 | 0.15459 | 28078 ft | 504 kts | 85° |
| 2026-04-28 12:40 | 46.32420 | 0.20504 | 28575 ft | 509 kts | 86° |
| 2026-04-28 12:41 | 46.32888 | 0.25596 | 29086 ft | 514 kts | 86° |
| 2026-04-28 12:41 | 46.33356 | 0.30748 | 29569 ft | 518 kts | 86° |
| 2026-04-28 12:41 | 46.33824 | 0.35943 | 30051 ft | 523 kts | 86° |
| 2026-04-28 12:41 | 46.34294 | 0.41179 | 30460 ft | 527 kts | 86° |
| 2026-04-28 12:42 | 46.34767 | 0.46448 | 30988 ft | 528 kts | 86° |
| 2026-04-28 12:42 | 46.35236 | 0.51708 | 31639 ft | 526 kts | 86° |
| 2026-04-28 12:42 | 46.35699 | 0.56949 | 32303 ft | 524 kts | 86° |
| 2026-04-28 12:42 | 46.36157 | 0.62174 | 32948 ft | 523 kts | 86° |
| 2026-04-28 12:43 | 46.36613 | 0.67388 | 33616 ft | 522 kts | 86° |
| 2026-04-28 12:43 | 46.37067 | 0.72600 | 34258 ft | 521 kts | 85° |
| 2026-04-28 12:43 | 46.37516 | 0.77781 | 34906 ft | 517 kts | 85° |
| 2026-04-28 12:43 | 46.37953 | 0.82859 | 35579 ft | 513 kts | 85° |
| 2026-04-28 12:44 | 46.38396 | 0.88027 | 36303 ft | 509 kts | 85° |
| 2026-04-28 12:44 | 46.38828 | 0.93092 | 37045 ft | 504 kts | 85° |
| 2026-04-28 12:44 | 46.39247 | 0.98043 | 37788 ft | 500 kts | 84° |
| 2026-04-28 12:44 | 46.39667 | 1.03025 | 38557 ft | 496 kts | 84° |
| 2026-04-28 12:45 | 46.40081 | 1.07962 | 39163 ft | 493 kts | 84° |
| 2026-04-28 12:45 | 46.40491 | 1.12880 | 39688 ft | 491 kts | 84° |
| 2026-04-28 12:45 | 46.40899 | 1.17787 | 40206 ft | 490 kts | 84° |
| 2026-04-28 12:45 | 46.41303 | 1.22681 | 40728 ft | 488 kts | 84° |
| 2026-04-28 12:46 | 46.41703 | 1.27553 | 41251 ft | 487 kts | 84° |
| 2026-04-28 12:46 | 46.42100 | 1.32423 | 41780 ft | 486 kts | 84° |
| 2026-04-28 12:46 | 46.42494 | 1.37277 | 42299 ft | 484 kts | 84° |
| 2026-04-28 12:46 | 46.42886 | 1.42121 | 42813 ft | 483 kts | 84° |
| 2026-04-28 12:47 | 46.43274 | 1.46951 | 43319 ft | 482 kts | 84° |
| 2026-04-28 12:47 | 46.43659 | 1.51773 | 43814 ft | 481 kts | 84° |
| 2026-04-28 12:47 | 46.44042 | 1.56585 | 44304 ft | 480 kts | 84° |
| 2026-04-28 12:47 | 46.44422 | 1.61391 | 44774 ft | 479 kts | 83° |
| 2026-04-28 12:48 | 46.44799 | 1.66186 | 45168 ft | 479 kts | 84° |
| 2026-04-28 12:48 | 46.45174 | 1.70984 | 45517 ft | 479 kts | 84° |
| 2026-04-28 12:48 | 46.45422 | 1.74161 | 45744 ft | 479 kts | 84° |
| 2026-04-28 12:48 | 46.45794 | 1.78966 | 46075 ft | 479 kts | 84° |
| 2026-04-28 12:49 | 46.46164 | 1.83765 | 46397 ft | 479 kts | 84° |
| 2026-04-28 12:49 | 46.46532 | 1.88571 | 46699 ft | 479 kts | 84° |
| 2026-04-28 12:49 | 46.46898 | 1.93364 | 46971 ft | 478 kts | 84° |
| 2026-04-28 12:50 | 46.47631 | 2.03078 | 47003 ft | 491 kts | 84° |
| 2026-04-28 12:50 | 46.48376 | 2.13036 | 47012 ft | 503 kts | 84° |
| 2026-04-28 12:51 | 46.49128 | 2.23250 | 47013 ft | 514 kts | 84° |
| 2026-04-28 12:51 | 46.49883 | 2.33608 | 47012 ft | 517 kts | 84° |
| 2026-04-28 12:52 | 46.50630 | 2.43991 | 47013 ft | 518 kts | 84° |
| 2026-04-28 12:52 | 46.51370 | 2.54404 | 47011 ft | 518 kts | 84° |
| 2026-04-28 12:53 | 46.52100 | 2.64815 | 47017 ft | 518 kts | 84° |
| 2026-04-28 12:53 | 46.52820 | 2.75228 | 47019 ft | 518 kts | 84° |
| 2026-04-28 12:54 | 46.53530 | 2.85642 | 47028 ft | 519 kts | 84° |
| 2026-04-28 12:54 | 46.54232 | 2.96064 | 47020 ft | 518 kts | 84° |
| 2026-04-28 12:55 | 46.54925 | 3.06497 | 47020 ft | 518 kts | 84° |
| 2026-04-28 12:55 | 46.55607 | 3.16923 | 47019 ft | 518 kts | 85° |
| 2026-04-28 12:56 | 46.56280 | 3.27353 | 47016 ft | 518 kts | 85° |
| 2026-04-28 12:56 | 46.56939 | 3.37709 | 47016 ft | 518 kts | 85° |
| 2026-04-28 12:57 | 46.57594 | 3.48145 | 47013 ft | 518 kts | 85° |
| 2026-04-28 12:57 | 46.58238 | 3.58578 | 47009 ft | 518 kts | 85° |
| 2026-04-28 12:58 | 46.58873 | 3.69011 | 47008 ft | 518 kts | 85° |
| 2026-04-28 12:58 | 46.59498 | 3.79450 | 47014 ft | 518 kts | 85° |
| 2026-04-28 12:59 | 46.60114 | 3.89887 | 47015 ft | 518 kts | 85° |
| 2026-04-28 12:59 | 46.60720 | 4.00326 | 47015 ft | 518 kts | 85° |
| 2026-04-28 13:00 | 46.61318 | 4.10791 | 47017 ft | 521 kts | 85° |
| 2026-04-28 13:00 | 46.61908 | 4.21285 | 47015 ft | 520 kts | 85° |
| 2026-04-28 13:01 | 46.62488 | 4.31769 | 47012 ft | 520 kts | 85° |
| 2026-04-28 13:01 | 46.63060 | 4.42286 | 47017 ft | 522 kts | 85° |
| 2026-04-28 13:02 | 46.63624 | 4.52826 | 47012 ft | 523 kts | 85° |
| 2026-04-28 13:02 | 46.64177 | 4.63369 | 47017 ft | 522 kts | 85° |
| 2026-04-28 13:03 | 46.64721 | 4.73909 | 47013 ft | 523 kts | 85° |
| 2026-04-28 13:03 | 46.65252 | 4.84389 | 47015 ft | 523 kts | 86° |
| 2026-04-28 13:04 | 46.65776 | 4.94927 | 47017 ft | 522 kts | 86° |
| 2026-04-28 13:04 | 46.66291 | 5.05470 | 47015 ft | 522 kts | 86° |
| 2026-04-28 13:05 | 46.66739 | 5.16014 | 47009 ft | 522 kts | 90° |
| 2026-04-28 13:05 | 46.65771 | 5.26463 | 47026 ft | 522 kts | 104° |
| 2026-04-28 13:06 | 46.63959 | 5.36672 | 47019 ft | 521 kts | 103° |
| 2026-04-28 13:06 | 46.62544 | 5.47018 | 47027 ft | 521 kts | 103° |
| 2026-04-28 13:07 | 46.60857 | 5.57271 | 47029 ft | 521 kts | 104° |
| 2026-04-28 13:07 | 46.59294 | 5.67569 | 47035 ft | 521 kts | 103° |
| 2026-04-28 13:08 | 46.57650 | 5.77863 | 47034 ft | 523 kts | 104° |
| 2026-04-28 13:08 | 46.56025 | 5.88163 | 47037 ft | 523 kts | 103° |
| 2026-04-28 13:09 | 46.54385 | 5.98455 | 47046 ft | 523 kts | 104° |
| 2026-04-28 13:09 | 46.52732 | 6.08734 | 47044 ft | 525 kts | 104° |
| 2026-04-28 13:10 | 46.51067 | 6.19077 | 47057 ft | 525 kts | 104° |
| 2026-04-28 13:10 | 46.49387 | 6.29392 | 47062 ft | 525 kts | 104° |
| 2026-04-28 13:11 | 46.47706 | 6.39705 | 47058 ft | 525 kts | 104° |
| 2026-04-28 13:11 | 46.46260 | 6.50089 | 47050 ft | 525 kts | 99° |
| 2026-04-28 13:12 | 46.45586 | 6.60627 | 47043 ft | 524 kts | 88° |
| 2026-04-28 13:12 | 46.46835 | 6.71003 | 47046 ft | 523 kts | 70° |
| 2026-04-28 13:13 | 46.50011 | 6.80245 | 47006 ft | 494 kts | 53° |
| 2026-04-28 13:13 | 46.52128 | 6.84028 | 46701 ft | 477 kts | 45° |
| 2026-04-28 13:13 | 46.54463 | 6.87425 | 45882 ft | 473 kts | 41° |
| 2026-04-28 13:13 | 46.56855 | 6.90704 | 44981 ft | 473 kts | 41° |
| 2026-04-28 13:14 | 46.59174 | 6.94100 | 43962 ft | 475 kts | 45° |
| 2026-04-28 13:14 | 46.61273 | 6.97820 | 42900 ft | 477 kts | 50° |
| 2026-04-28 13:14 | 46.63235 | 7.01717 | 41817 ft | 478 kts | 52° |
| 2026-04-28 13:14 | 46.65218 | 7.05606 | 40842 ft | 492 kts | 49° |
| 2026-04-28 13:15 | 46.67423 | 7.09445 | 40328 ft | 486 kts | 46° |
| 2026-04-28 13:15 | 46.69581 | 7.13213 | 39731 ft | 484 kts | 47° |
| 2026-04-28 13:15 | 46.71685 | 7.17028 | 39163 ft | 482 kts | 49° |
| 2026-04-28 13:15 | 46.73759 | 7.20867 | 38586 ft | 481 kts | 49° |
| 2026-04-28 13:16 | 46.75824 | 7.24636 | 37943 ft | 485 kts | 48° |
| 2026-04-28 13:16 | 46.77958 | 7.28473 | 37304 ft | 489 kts | 48° |
| 2026-04-28 13:16 | 46.80099 | 7.32363 | 36717 ft | 493 kts | 48° |
| 2026-04-28 13:16 | 46.82235 | 7.36294 | 36128 ft | 495 kts | 48° |
| 2026-04-28 13:17 | 46.84380 | 7.40233 | 35576 ft | 496 kts | 48° |
| 2026-04-28 13:17 | 46.86546 | 7.44181 | 35041 ft | 500 kts | 48° |
| 2026-04-28 13:17 | 46.88719 | 7.48155 | 34529 ft | 501 kts | 48° |
| 2026-04-28 13:17 | 46.90896 | 7.52164 | 34023 ft | 501 kts | 48° |
| 2026-04-28 13:18 | 46.93045 | 7.56134 | 32452 ft | 498 kts | 48° |
| 2026-04-28 13:18 | 46.95241 | 7.60163 | 31158 ft | 513 kts | 48° |
| 2026-04-28 13:18 | 46.97445 | 7.64220 | 31112 ft | 509 kts | 48° |
| 2026-04-28 13:18 | 46.99660 | 7.68315 | 30474 ft | 512 kts | 48° |
| 2026-04-28 13:19 | 47.01847 | 7.72378 | 29742 ft | 505 kts | 48° |
| 2026-04-28 13:19 | 47.04009 | 7.76390 | 29035 ft | 497 kts | 49° |
| 2026-04-28 13:19 | 47.06150 | 7.80352 | 28389 ft | 492 kts | 49° |
| 2026-04-28 13:19 | 47.08262 | 7.84271 | 27747 ft | 488 kts | 49° |
| 2026-04-28 13:20 | 47.10349 | 7.88161 | 27112 ft | 482 kts | 49° |
| 2026-04-28 13:20 | 47.12412 | 7.92009 | 26479 ft | 480 kts | 49° |
| 2026-04-28 13:20 | 47.14351 | 7.95963 | 25845 ft | 475 kts | 56° |
| 2026-04-28 13:20 | 47.16090 | 8.00064 | 25238 ft | 471 kts | 57° |
| 2026-04-28 13:21 | 47.17814 | 8.04130 | 24619 ft | 466 kts | 57° |
| 2026-04-28 13:21 | 47.19536 | 8.08141 | 24008 ft | 461 kts | 57° |
| 2026-04-28 13:21 | 47.21235 | 8.12106 | 23365 ft | 456 kts | 57° |
| 2026-04-28 13:21 | 47.22899 | 8.16029 | 22765 ft | 449 kts | 57° |
| 2026-04-28 13:22 | 47.24537 | 8.19903 | 22177 ft | 444 kts | 58° |
| 2026-04-28 13:22 | 47.26161 | 8.23731 | 21597 ft | 438 kts | 58° |
| 2026-04-28 13:22 | 47.27763 | 8.27507 | 21023 ft | 432 kts | 58° |
| 2026-04-28 13:22 | 47.29277 | 8.31294 | 20435 ft | 427 kts | 63° |
| 2026-04-28 13:23 | 47.30071 | 8.35454 | 19870 ft | 419 kts | 83° |
| 2026-04-28 13:23 | 47.30124 | 8.39704 | 19358 ft | 413 kts | 93° |
| 2026-04-28 13:23 | 47.30017 | 8.43901 | 18816 ft | 407 kts | 94° |
| 2026-04-28 13:23 | 47.29904 | 8.48043 | 18274 ft | 402 kts | 93° |
| 2026-04-28 13:24 | 47.29823 | 8.52138 | 17712 ft | 399 kts | 92° |
| 2026-04-28 13:24 | 47.29749 | 8.56200 | 17190 ft | 395 kts | 93° |
| 2026-04-28 13:24 | 47.29656 | 8.60233 | 16669 ft | 392 kts | 93° |
| 2026-04-28 13:24 | 47.29559 | 8.64178 | 16156 ft | 374 kts | 93° |
| 2026-04-28 13:25 | 47.29476 | 8.67894 | 15676 ft | 352 kts | 93° |
| 2026-04-28 13:25 | 47.29399 | 8.71393 | 15232 ft | 333 kts | 93° |
| 2026-04-28 13:25 | 47.29319 | 8.74723 | 14802 ft | 319 kts | 92° |
| 2026-04-28 13:25 | 47.29240 | 8.77928 | 14394 ft | 309 kts | 92° |
| 2026-04-28 13:26 | 47.29164 | 8.81064 | 13995 ft | 305 kts | 92° |
| 2026-04-28 13:26 | 47.29089 | 8.84177 | 13573 ft | 303 kts | 92° |
| 2026-04-28 13:26 | 47.29047 | 8.87262 | 13163 ft | 300 kts | 88° |
| 2026-04-28 13:26 | 47.29636 | 8.90128 | 12864 ft | 285 kts | 60° |
| 2026-04-28 13:27 | 47.30742 | 8.92517 | 12935 ft | 292 kts | 53° |
| 2026-04-28 13:27 | 47.31963 | 8.94961 | 12478 ft | 296 kts | 53° |
| 2026-04-28 13:27 | 47.33169 | 8.97362 | 12007 ft | 295 kts | 53° |
| 2026-04-28 13:27 | 47.34375 | 8.99796 | 11536 ft | 290 kts | 54° |
| 2026-04-28 13:28 | 47.35474 | 9.02030 | 10609 ft | 259 kts | 54° |
| 2026-04-28 13:28 | 47.36485 | 9.04075 | 10082 ft | 231 kts | 54° |
| 2026-04-28 13:28 | 47.37421 | 9.05967 | 8485 ft | 234 kts | 54° |
| 2026-04-28 13:28 | 47.38411 | 9.07977 | 7371 ft | 247 kts | 54° |
| 2026-04-28 13:29 | 47.39384 | 9.09948 | 7443 ft | 230 kts | 53° |
| 2026-04-28 13:29 | 47.40335 | 9.11878 | 7584 ft | 234 kts | 54° |
| 2026-04-28 13:29 | 47.41301 | 9.13838 | 7727 ft | 238 kts | 54° |
| 2026-04-28 13:29 | 47.42277 | 9.15821 | 7873 ft | 241 kts | 54° |
| 2026-04-28 13:30 | 47.43259 | 9.17817 | 7978 ft | 243 kts | 54° |
| 2026-04-28 13:30 | 47.44269 | 9.19870 | 7643 ft | 248 kts | 53° |
| 2026-04-28 13:30 | 47.45275 | 9.21913 | 7250 ft | 244 kts | 53° |
| 2026-04-28 13:30 | 47.46262 | 9.23921 | 6859 ft | 240 kts | 53° |
| 2026-04-28 13:31 | 47.48190 | 9.27849 | 6092 ft | 232 kts | 53° |
| 2026-04-28 13:31 | 47.49126 | 9.29757 | 5722 ft | 225 kts | 53° |
| 2026-04-28 13:31 | 47.50024 | 9.31589 | 5365 ft | 214 kts | 54° |
| 2026-04-28 13:32 | 47.50827 | 9.33366 | 4986 ft | 203 kts | 64° |
| 2026-04-28 13:32 | 47.50925 | 9.35358 | 4796 ft | 189 kts | 98° |
| 2026-04-28 13:32 | 47.50636 | 9.37263 | 4500 ft | 196 kts | 101° |
| 2026-04-28 13:32 | 47.50382 | 9.39221 | 4141 ft | 192 kts | 98° |
| 2026-04-28 13:33 | 47.50174 | 9.41115 | 3786 ft | 178 kts | 97° |
| 2026-04-28 13:33 | 47.49990 | 9.42787 | 3488 ft | 154 kts | 98° |
| 2026-04-28 13:33 | 47.49825 | 9.44252 | 3219 ft | 136 kts | 97° |
| 2026-04-28 13:33 | 47.49673 | 9.45583 | 2993 ft | 128 kts | 97° |
| 2026-04-28 13:34 | 47.49530 | 9.46861 | 2773 ft | 124 kts | 97° |
| 2026-04-28 13:34 | 47.49390 | 9.48106 | 2547 ft | 126 kts | 97° |
| 2026-04-28 13:34 | 47.49241 | 9.49410 | 2385 ft | 131 kts | 98° |
| 2026-04-28 13:34 | 47.49068 | 9.50762 | 2164 ft | 137 kts | 100° |
| 2026-04-28 13:35 | 47.48915 | 9.52175 | 1932 ft | 139 kts | 98° |
| 2026-04-28 13:35 | 47.48769 | 9.53581 | 1676 ft | 138 kts | 98° |
| 2026-04-28 13:35 | 47.48624 | 9.54951 | 1369 ft | 130 kts | 98° |
| 2026-04-28 13:35 | 47.48535 | 9.55807 | 1319 ft | 120 kts | 99° |
| 2026-04-28 13:36 | 47.48433 | 9.56748 | 1307 ft | 50 kts | 98° |
| 2026-04-28 13:36 | 47.48414 | 9.57015 | 1312 ft | 8 kts | 66° |
| 2026-04-28 13:36 | 47.48410 | 9.57026 | 1313 ft | 2 kts | 232° |
| 2026-04-28 13:36 | 47.48423 | 9.56856 | 1308 ft | 27 kts | 278° |
| 2026-04-28 13:37 | 47.48455 | 9.56563 | 1307 ft | 35 kts | 279° |
| 2026-04-28 13:37 | 47.48491 | 9.56198 | 1309 ft | 35 kts | 279° |
| 2026-04-28 13:37 | 47.48526 | 9.55867 | 1317 ft | 30 kts | 278° |
| 2026-04-28 13:37 | 47.48558 | 9.55562 | 1314 ft | 30 kts | 279° |
| 2026-04-28 13:38 | 47.48581 | 9.55346 | 1315 ft | 6 kts | 283° |
| 2026-04-28 13:38 | 47.48620 | 9.55328 | 1313 ft | 8 kts | 6° |
| 2026-04-28 13:38 | 47.48667 | 9.55257 | 1311 ft | 9 kts | 311° |
| 2026-04-28 13:38 | 47.48716 | 9.55253 | 1311 ft | 3 kts | 6° |
| 2026-04-28 13:39 | 47.48721 | 9.55254 | 1310 ft | 0 kts | 7° |